createdAt,value
2022-11-26T00:02:27.140Z,74.42
2022-11-26T00:04:54.639Z,74.89
2022-11-26T00:07:23.750Z,74.76
2022-11-26T00:09:50.423Z,74.40
2022-11-26T00:12:31.907Z,73.54
2022-11-26T00:15:00.483Z,73.36
2022-11-26T00:17:27.075Z,72.31
2022-11-26T00:19:53.587Z,72.58
2022-11-26T00:22:29.572Z,72.90
2022-11-26T00:24:56.747Z,73.86
2022-11-26T00:27:26.235Z,72.99
2022-11-26T00:29:53.229Z,73.49
2022-11-26T00:32:24.864Z,73.63
2022-11-26T00:34:52.728Z,73.34
2022-11-26T00:37:30.895Z,73.31
2022-11-26T00:39:57.662Z,72.32
2022-11-26T00:42:24.149Z,72.39
2022-11-26T00:44:50.613Z,72.34
2022-11-26T00:47:17.090Z,72.59
2022-11-26T00:49:43.619Z,72.80
2022-11-26T00:52:32.906Z,73.02
2022-11-26T00:55:04.215Z,72.76
2022-11-26T00:57:30.727Z,73.16
2022-11-26T00:59:57.210Z,73.45
2022-11-26T01:02:23.708Z,73.67
2022-11-26T01:04:50.235Z,73.92
2022-11-26T01:07:16.763Z,73.53
2022-11-26T01:09:44.323Z,73.67
2022-11-26T01:12:14.693Z,73.57
2022-11-26T01:14:41.231Z,73.48
2022-11-26T01:17:11.264Z,72.84
2022-11-26T01:19:37.791Z,73.15
2022-11-26T01:22:04.290Z,73.33
2022-11-26T01:24:30.872Z,72.76
2022-11-26T01:26:57.361Z,73.18
2022-11-26T01:29:23.981Z,73.03
2022-11-26T01:31:50.523Z,73.47
2022-11-26T01:34:17.036Z,73.62
2022-11-26T01:36:43.524Z,73.59
2022-11-26T01:39:09.915Z,72.81
2022-11-26T01:41:42.498Z,72.28
2022-11-26T01:44:18.736Z,72.25
2022-11-26T01:46:45.247Z,72.91
2022-11-26T01:49:30.170Z,71.82
2022-11-26T01:52:25.866Z,72.55
2022-11-26T01:54:53.514Z,72.68
2022-11-26T01:57:25.972Z,72.85
2022-11-26T01:59:59.048Z,72.87
2022-11-26T02:02:27.582Z,72.10
2022-11-26T02:05:05.610Z,71.73
2022-11-26T02:07:32.175Z,71.70
2022-11-26T02:09:58.723Z,71.42
2022-11-26T02:12:25.263Z,71.31
2022-11-26T02:14:51.783Z,71.74
2022-11-26T02:17:38.554Z,71.89
2022-11-26T02:20:33.359Z,71.67
2022-11-26T02:23:17.683Z,72.42
2022-11-26T02:25:53.178Z,71.96
2022-11-26T02:28:57.698Z,72.48
2022-11-26T02:31:35.608Z,72.04
2022-11-26T02:34:13.711Z,72.16
2022-11-26T02:36:56.827Z,71.35
2022-11-26T02:39:25.986Z,71.00
2022-11-26T02:41:58.558Z,71.47
2022-11-26T02:44:38.128Z,70.36
2022-11-26T02:47:08.252Z,71.16
2022-11-26T02:49:35.818Z,71.22
2022-11-26T02:52:03.696Z,71.34
2022-11-26T02:54:31.570Z,72.04
2022-11-26T02:56:58.454Z,72.58
2022-11-26T02:59:25.041Z,72.61
2022-11-26T03:01:59.147Z,72.90
2022-11-26T03:04:29.072Z,73.42
2022-11-26T03:06:56.736Z,73.37
2022-11-26T03:09:23.626Z,74.75
2022-11-26T03:11:50.265Z,75.47
2022-11-26T03:14:16.897Z,75.83
2022-11-26T03:16:43.446Z,74.89
2022-11-26T03:19:10.242Z,75.57
2022-11-26T03:21:36.722Z,75.31
2022-11-26T03:24:03.268Z,75.83
2022-11-26T03:26:29.733Z,75.17
2022-11-26T03:28:56.345Z,75.38
2022-11-26T03:31:23.112Z,75.83
2022-11-26T03:33:49.631Z,75.20
2022-11-26T03:36:16.087Z,75.14
2022-11-26T03:38:42.516Z,75.15
2022-11-26T03:41:09.011Z,76.29
2022-11-26T03:43:35.503Z,75.50
2022-11-26T03:46:02.040Z,76.09
2022-11-26T03:48:28.547Z,76.09
2022-11-26T03:50:55.041Z,76.08
2022-11-26T03:53:21.515Z,76.19
2022-11-26T03:55:48.127Z,76.55
2022-11-26T03:58:14.675Z,77.28
2022-11-26T04:00:41.613Z,76.63
2022-11-26T04:03:08.257Z,77.06
2022-11-26T04:05:34.876Z,76.90
2022-11-26T04:08:01.355Z,77.00
2022-11-26T04:10:27.833Z,76.69
2022-11-26T04:13:14.168Z,76.38
2022-11-26T04:15:49.941Z,75.35
2022-11-26T04:18:16.510Z,75.88
2022-11-26T04:20:42.987Z,75.42
2022-11-26T04:23:09.445Z,75.51
2022-11-26T04:25:35.920Z,75.61
2022-11-26T04:28:02.391Z,75.62
2022-11-26T04:30:30.005Z,76.35
2022-11-26T04:32:56.627Z,75.78
2022-11-26T04:35:23.190Z,76.32
2022-11-26T04:37:49.648Z,75.79
2022-11-26T04:40:16.106Z,75.82
2022-11-26T04:42:42.548Z,75.78
2022-11-26T04:45:09.794Z,76.33
2022-11-26T04:47:41.482Z,76.19
2022-11-26T04:50:09.706Z,76.13
2022-11-26T04:52:36.235Z,76.00
2022-11-26T04:55:02.761Z,76.11
2022-11-26T04:57:29.256Z,75.14
2022-11-26T04:59:55.733Z,74.80
2022-11-26T05:02:22.292Z,74.96
2022-11-26T05:04:48.785Z,74.39
2022-11-26T05:07:15.377Z,74.62
2022-11-26T05:09:42.257Z,74.62
2022-11-26T05:12:08.807Z,74.28
2022-11-26T05:14:35.379Z,74.44
2022-11-26T05:17:02.005Z,75.52
2022-11-26T05:19:28.519Z,75.06
2022-11-26T05:21:55.067Z,75.12
2022-11-26T05:24:21.510Z,75.27
2022-11-26T05:26:51.210Z,76.08
2022-11-26T05:29:21.939Z,76.00
2022-11-26T05:31:48.473Z,75.37
2022-11-26T05:34:15.152Z,75.72
2022-11-26T05:36:41.610Z,75.25
2022-11-26T05:39:08.059Z,75.51
2022-11-26T05:41:34.602Z,76.08
2022-11-26T05:44:01.098Z,76.81
2022-11-26T05:46:27.966Z,77.37
2022-11-26T05:48:54.440Z,76.97
2022-11-26T05:51:21.042Z,76.40
2022-11-26T05:53:47.570Z,76.57
2022-11-26T05:56:14.113Z,76.52
2022-11-26T05:58:42.825Z,75.91
2022-11-26T06:01:09.888Z,77.22
2022-11-26T06:03:37.417Z,77.92
2022-11-26T06:06:04.782Z,77.70
2022-11-26T06:08:31.614Z,77.68
2022-11-26T06:10:58.107Z,78.29
2022-11-26T06:13:24.859Z,77.69
2022-11-26T06:15:51.527Z,77.38
2022-11-26T06:18:18.205Z,77.85
2022-11-26T06:20:45.036Z,76.92
2022-11-26T06:23:11.597Z,76.93
2022-11-26T06:25:40.499Z,77.76
2022-11-26T06:28:07.306Z,77.34
2022-11-26T06:30:33.810Z,76.75
2022-11-26T06:33:00.319Z,77.24
2022-11-26T06:35:26.828Z,77.27
2022-11-26T06:37:53.315Z,77.83
2022-11-26T06:40:22.237Z,77.08
2022-11-26T06:42:53.927Z,76.50
2022-11-26T06:45:22.040Z,76.52
2022-11-26T06:47:50.458Z,76.81
2022-11-26T06:50:18.420Z,76.13
2022-11-26T06:52:45.027Z,76.80
2022-11-26T06:55:11.693Z,76.64
2022-11-26T06:57:38.183Z,77.18
2022-11-26T07:00:05.805Z,77.36
2022-11-26T07:02:32.344Z,76.52
2022-11-26T07:04:58.894Z,76.04
2022-11-26T07:07:25.689Z,76.03
2022-11-26T07:09:52.318Z,75.72
2022-11-26T07:12:18.791Z,75.95
2022-11-26T07:14:45.278Z,76.81
2022-11-26T07:17:11.763Z,76.58
2022-11-26T07:19:38.282Z,76.11
2022-11-26T07:22:05.008Z,76.64
2022-11-26T07:24:31.606Z,76.54
2022-11-26T07:27:00.731Z,76.35
2022-11-26T07:29:27.243Z,75.87
2022-11-26T07:31:53.795Z,76.02
2022-11-26T07:34:20.352Z,75.34
2022-11-26T07:36:47.930Z,75.03
2022-11-26T07:39:14.402Z,73.93
2022-11-26T07:41:40.891Z,73.58
2022-11-26T07:44:11.946Z,73.48
2022-11-26T07:46:38.430Z,73.31
2022-11-26T07:49:05.167Z,73.25
2022-11-26T07:51:32.648Z,73.45
2022-11-26T07:54:04.026Z,72.87
2022-11-26T07:56:30.547Z,72.96
2022-11-26T07:58:57.139Z,72.90
2022-11-26T08:01:25.970Z,73.36
2022-11-26T08:03:53.269Z,72.59
2022-11-26T08:06:23.904Z,73.40
2022-11-26T08:08:50.815Z,72.71
2022-11-26T08:11:25.496Z,72.99
2022-11-26T08:13:58.188Z,72.52
2022-11-26T08:16:26.872Z,72.22
2022-11-26T08:18:59.108Z,71.48
2022-11-26T08:21:25.497Z,71.54
2022-11-26T08:23:53.032Z,71.33
2022-11-26T08:26:25.137Z,71.32
2022-11-26T08:28:57.530Z,71.79
2022-11-26T08:31:24.255Z,71.34
2022-11-26T08:33:50.867Z,70.77
2022-11-26T08:36:17.347Z,71.42
2022-11-26T08:38:43.854Z,72.11
2022-11-26T08:41:14.219Z,71.59
2022-11-26T08:44:05.216Z,70.93
2022-11-26T08:46:27.261Z,70.73
2022-11-26T08:48:56.131Z,70.15
2022-11-26T08:51:23.502Z,70.50
2022-11-26T08:53:49.963Z,70.02
2022-11-26T08:56:16.496Z,69.55
2022-11-26T08:58:45.838Z,69.35
2022-11-26T09:01:20.525Z,68.56
2022-11-26T09:03:50.991Z,69.07
2022-11-26T09:06:18.412Z,68.70
2022-11-26T09:08:45.017Z,69.61
2022-11-26T09:11:12.033Z,68.53
2022-11-26T09:13:38.635Z,69.19
2022-11-26T09:16:05.421Z,68.35
2022-11-26T09:18:32.017Z,68.45
2022-11-26T09:21:02.480Z,69.28
2022-11-26T09:23:29.053Z,68.17
2022-11-26T09:25:55.595Z,68.36
2022-11-26T09:28:22.112Z,67.96
2022-11-26T09:30:48.583Z,67.87
2022-11-26T09:33:15.222Z,68.17
2022-11-26T09:35:42.288Z,68.43
2022-11-26T09:38:08.788Z,68.58
2022-11-26T09:40:54.166Z,68.77
2022-11-26T09:43:29.878Z,68.02
2022-11-26T09:45:58.305Z,67.82
2022-11-26T09:48:25.823Z,68.41
2022-11-26T09:50:57.311Z,68.84
2022-11-26T09:53:31.486Z,68.04
2022-11-26T09:56:00.202Z,67.73
2022-11-26T09:58:34.529Z,66.39
2022-11-26T10:01:05.683Z,66.58
2022-11-26T10:03:34.851Z,65.49
2022-11-26T10:06:27.270Z,65.18
2022-11-26T10:09:04.087Z,64.87
2022-11-26T10:11:43.855Z,64.24
2022-11-26T10:14:32.795Z,64.91
2022-11-26T10:17:33.853Z,63.64
2022-11-26T10:20:18.559Z,63.27
2022-11-26T10:22:44.991Z,62.90
2022-11-26T10:25:17.491Z,63.15
2022-11-26T10:27:47.344Z,62.57
2022-11-26T10:30:22.336Z,62.31
2022-11-26T10:32:49.903Z,62.42
2022-11-26T10:35:24.783Z,61.46
2022-11-26T10:37:51.423Z,62.42
2022-11-26T10:40:26.795Z,62.18
2022-11-26T10:43:08.601Z,60.87
2022-11-26T10:45:44.090Z,60.06
2022-11-26T10:48:21.271Z,61.16
2022-11-26T10:51:26.831Z,59.64
2022-11-26T10:53:58.447Z,59.03
2022-11-26T10:56:41.633Z,59.99
2022-11-26T10:59:36.364Z,61.07
2022-11-26T11:02:17.665Z,61.36
2022-11-26T11:04:46.656Z,61.40
2022-11-26T11:07:35.461Z,60.85
2022-11-26T11:10:13.079Z,61.15
2022-11-26T11:12:41.915Z,61.05
2022-11-26T11:15:23.015Z,61.45
2022-11-26T11:18:13.386Z,61.21
2022-11-26T11:20:58.434Z,60.18
2022-11-26T11:24:06.440Z,60.04
2022-11-26T11:26:25.074Z,58.78
2022-11-26T11:28:53.876Z,58.22
2022-11-26T11:31:26.603Z,57.56
2022-11-26T11:34:17.503Z,57.21
2022-11-26T11:36:44.068Z,55.94
2022-11-26T11:39:30.635Z,56.69
2022-11-26T11:42:02.312Z,54.86
2022-11-26T11:44:41.511Z,54.47
2022-11-26T11:47:34.691Z,60.31
2022-11-26T11:50:22.915Z,60.18
2022-11-26T11:53:28.798Z,61.01
2022-11-26T11:56:02.483Z,61.73
2022-11-26T11:58:32.120Z,62.26
2022-11-26T12:01:17.474Z,62.15
2022-11-26T12:04:22.820Z,62.25
2022-11-26T12:06:54.997Z,62.30
2022-11-26T12:09:36.211Z,61.29
2022-11-26T12:12:38.134Z,62.11
2022-11-26T12:15:11.859Z,62.37
2022-11-26T12:17:58.812Z,63.33
2022-11-26T12:20:43.308Z,63.48
2022-11-26T12:23:19.964Z,64.63
2022-11-26T12:25:53.141Z,64.18
2022-11-26T12:28:24.482Z,63.17
2022-11-26T12:31:01.619Z,63.84
2022-11-26T12:33:35.547Z,64.52
2022-11-26T12:36:16.583Z,63.78
2022-11-26T12:38:48.119Z,64.21
2022-11-26T12:41:27.746Z,63.65
2022-11-26T12:44:15.474Z,63.36
2022-11-26T12:46:56.225Z,64.32
2022-11-26T12:49:42.671Z,63.51
2022-11-26T12:52:38.433Z,62.79
2022-11-26T12:55:25.116Z,61.20
2022-11-26T12:58:10.751Z,58.68
2022-11-26T13:00:40.406Z,59.98
2022-11-26T13:03:07.156Z,58.96
2022-11-26T13:05:58.400Z,59.04
2022-11-26T13:08:31.060Z,59.40
2022-11-26T13:11:27.304Z,59.55
2022-11-26T13:14:30.690Z,59.12
2022-11-26T13:17:02.167Z,59.78
2022-11-26T13:19:31.659Z,60.82
2022-11-26T13:22:02.735Z,61.51
2022-11-26T13:24:41.678Z,61.23
2022-11-26T13:27:23.934Z,61.10
2022-11-26T13:30:18.356Z,61.11
2022-11-26T13:33:11.856Z,60.88
2022-11-26T13:36:05.854Z,61.81
2022-11-26T13:38:55.308Z,61.48
2022-11-26T13:41:28.394Z,62.02
2022-11-26T13:44:37.423Z,62.48
2022-11-26T13:47:12.987Z,63.28
2022-11-26T13:49:44.138Z,63.45
2022-11-26T13:52:16.699Z,63.32
2022-11-26T13:54:47.660Z,63.23
2022-11-26T13:57:20.867Z,64.22
2022-11-26T13:59:49.099Z,64.35
2022-11-26T14:02:34.129Z,65.22
2022-11-26T14:05:03.287Z,65.16
2022-11-26T14:07:29.787Z,65.54
2022-11-26T14:09:58.305Z,65.63
2022-11-26T14:13:02.728Z,65.29
2022-11-26T14:16:07.457Z,65.60
2022-11-26T14:18:49.102Z,65.98
2022-11-26T14:21:16.421Z,66.08
2022-11-26T14:23:46.673Z,66.07
2022-11-26T14:26:22.063Z,65.57
2022-11-26T14:28:48.609Z,65.93
2022-11-26T14:31:21.012Z,66.09
2022-11-26T14:33:48.614Z,66.34
2022-11-26T14:36:24.496Z,66.83
2022-11-26T14:39:14.161Z,67.07
2022-11-26T14:41:40.642Z,67.56
2022-11-26T14:44:08.762Z,68.16
2022-11-26T14:46:35.672Z,68.32
2022-11-26T14:49:14.415Z,68.48
2022-11-26T14:51:43.623Z,67.99
2022-11-26T14:54:16.126Z,67.54
2022-11-26T14:56:46.276Z,67.31
2022-11-26T14:59:19.680Z,66.81
2022-11-26T15:01:46.666Z,66.97
2022-11-26T15:04:30.778Z,67.04
2022-11-26T15:06:57.731Z,68.38
2022-11-26T15:09:29.402Z,69.02
2022-11-26T15:12:06.543Z,69.50
2022-11-26T15:14:40.708Z,70.30
2022-11-26T15:17:10.692Z,70.87
2022-11-26T15:19:38.051Z,72.16
2022-11-26T15:22:24.758Z,72.31
2022-11-26T15:24:52.090Z,72.29
2022-11-26T15:27:39.750Z,73.30
2022-11-26T15:30:36.926Z,74.12
2022-11-26T15:33:10.963Z,73.68
2022-11-26T15:35:37.999Z,73.71
2022-11-26T15:38:20.740Z,74.49
2022-11-26T15:40:52.382Z,74.85
2022-11-26T15:43:26.419Z,75.03
2022-11-26T15:45:57.899Z,75.62
2022-11-26T15:48:54.010Z,75.41
2022-11-26T15:51:32.154Z,76.23
2022-11-26T15:54:02.678Z,76.23
2022-11-26T15:56:32.233Z,77.07
2022-11-26T15:59:00.974Z,77.40
2022-11-26T16:01:29.704Z,76.91
2022-11-26T16:03:57.088Z,76.66
2022-11-26T16:06:28.091Z,76.89
2022-11-26T16:09:04.163Z,76.88
2022-11-26T16:11:31.431Z,77.30
2022-11-26T16:13:57.967Z,77.37
2022-11-26T16:16:26.309Z,76.50
2022-11-26T16:19:02.678Z,76.39
2022-11-26T16:21:33.738Z,76.81
2022-11-26T16:24:19.497Z,76.22
2022-11-26T16:27:04.650Z,76.82
2022-11-26T16:29:32.511Z,77.31
2022-11-26T16:31:59.363Z,77.14
2022-11-26T16:34:26.655Z,77.39
2022-11-26T16:37:17.770Z,77.92
2022-11-26T16:39:44.286Z,77.76
2022-11-26T16:42:18.108Z,78.10
2022-11-26T16:44:44.610Z,78.22
2022-11-26T16:47:30.266Z,78.59
2022-11-26T16:49:57.015Z,78.59
2022-11-26T16:52:23.555Z,78.77
2022-11-26T16:54:50.216Z,78.83
2022-11-26T16:57:19.080Z,78.83
2022-11-26T16:59:49.971Z,78.63
2022-11-26T17:02:18.437Z,79.31
2022-11-26T17:04:45.307Z,79.45
2022-11-26T17:07:20.986Z,79.31
2022-11-26T17:09:47.612Z,80.07
2022-11-26T17:12:20.055Z,79.40
2022-11-26T17:14:47.135Z,79.58
2022-11-26T17:17:20.477Z,79.28
2022-11-26T17:19:53.032Z,79.41
2022-11-26T17:22:19.601Z,79.60
2022-11-26T17:24:46.213Z,79.47
2022-11-26T17:27:14.249Z,79.04
2022-11-26T17:29:49.851Z,79.48
2022-11-26T17:32:18.532Z,80.35
2022-11-26T17:34:45.816Z,80.41
2022-11-26T17:37:24.399Z,80.24
2022-11-26T17:39:51.586Z,80.28
2022-11-26T17:43:12.717Z,81.28
2022-11-26T17:45:39.622Z,80.74
2022-11-26T17:48:06.701Z,80.76
2022-11-26T17:50:44.863Z,81.05
2022-11-26T17:53:11.590Z,80.25
2022-11-26T17:55:38.429Z,80.81
2022-11-26T17:58:17.201Z,80.31
2022-11-26T18:00:43.737Z,80.02
2022-11-26T18:03:27.919Z,80.84
2022-11-26T18:05:54.471Z,80.68
2022-11-26T18:08:23.416Z,80.42
2022-11-26T18:10:49.994Z,79.75
2022-11-26T18:13:18.936Z,80.31
2022-11-26T18:15:47.880Z,79.96
2022-11-26T18:18:14.485Z,79.30
2022-11-26T18:20:45.579Z,79.31
2022-11-26T18:23:14.854Z,79.33
2022-11-26T18:25:41.325Z,78.87
2022-11-26T18:28:36.759Z,78.41
2022-11-26T18:31:12.277Z,77.96
2022-11-26T18:34:05.239Z,78.52
2022-11-26T18:36:50.696Z,78.24
2022-11-26T18:39:27.509Z,77.60
2022-11-26T18:42:00.764Z,77.25
2022-11-26T18:44:43.709Z,77.86
2022-11-26T18:47:10.224Z,76.68
2022-11-26T18:49:42.264Z,77.14
2022-11-26T18:52:12.719Z,75.71
2022-11-26T18:54:41.657Z,75.81
2022-11-26T18:57:37.016Z,75.68
2022-11-26T19:00:04.330Z,76.05
2022-11-26T19:02:32.099Z,76.62
2022-11-26T19:05:04.341Z,76.75
2022-11-26T19:07:30.983Z,76.45
2022-11-26T19:10:05.397Z,75.43
2022-11-26T19:16:15.823Z,73.75
2022-11-26T19:19:05.926Z,72.89
2022-11-26T19:21:35.557Z,74.06
2022-11-26T19:24:24.427Z,74.51
2022-11-26T19:26:51.120Z,73.95
2022-11-26T19:29:33.675Z,73.52
2022-11-26T19:35:51.649Z,74.35
2022-11-26T19:41:49.397Z,74.68
2022-11-26T19:44:41.429Z,75.65
2022-11-26T19:47:34.309Z,77.97
2022-11-26T19:50:00.788Z,77.16
2022-11-26T19:52:31.309Z,78.45
2022-11-26T19:54:57.924Z,78.63
2022-11-26T19:57:27.389Z,78.75
2022-11-26T19:59:53.885Z,79.13
2022-11-26T20:02:24.081Z,78.52
2022-11-26T20:04:59.472Z,78.41
2022-11-26T20:07:28.403Z,79.21
2022-11-26T20:09:54.979Z,79.70
2022-11-26T20:12:23.943Z,79.19
2022-11-26T20:14:50.970Z,80.01
2022-11-26T20:17:17.599Z,80.33
2022-11-26T20:19:44.160Z,80.90
2022-11-26T20:22:10.668Z,79.67
2022-11-26T20:24:37.202Z,78.86
2022-11-26T20:27:03.908Z,78.68
2022-11-26T20:32:17.947Z,78.80
2022-11-26T20:35:23.946Z,77.31
2022-11-26T20:37:50.629Z,76.67
2022-11-26T20:40:17.237Z,76.85
2022-11-26T20:45:49.756Z,77.71
2022-11-26T20:48:16.351Z,77.85
2022-11-26T20:50:42.824Z,77.54
2022-11-26T20:53:09.352Z,78.41
2022-11-26T20:55:35.860Z,78.69
2022-11-26T20:58:02.395Z,79.15
2022-11-26T21:00:28.983Z,79.08
2022-11-26T21:06:02.198Z,79.63
2022-11-26T21:08:28.843Z,79.44
2022-11-26T21:10:55.341Z,80.54
2022-11-26T21:13:21.864Z,80.20
2022-11-26T21:15:48.511Z,80.16
2022-11-26T21:18:15.330Z,80.20
2022-11-26T21:20:53.847Z,80.62
2022-11-26T21:23:20.400Z,80.87
2022-11-26T21:25:47.099Z,81.34
2022-11-26T21:28:13.584Z,81.58
2022-11-26T21:30:42.871Z,82.02
2022-11-26T21:33:09.799Z,81.94
2022-11-26T21:35:36.889Z,81.12
2022-11-26T21:38:04.030Z,81.06
2022-11-26T21:40:30.515Z,80.39
2022-11-26T21:42:56.999Z,79.75
2022-11-26T21:45:23.711Z,80.07
2022-11-26T21:47:51.029Z,79.17
2022-11-26T21:50:18.231Z,79.07
2022-11-26T21:52:45.040Z,78.03
2022-11-26T21:55:11.674Z,78.67
2022-11-26T21:57:38.147Z,78.40
2022-11-26T22:00:05.483Z,78.88
2022-11-26T22:02:32.022Z,78.77
2022-11-26T22:04:58.687Z,79.92
2022-11-26T22:07:25.321Z,79.88
2022-11-26T22:09:51.995Z,79.51
2022-11-26T22:12:18.456Z,79.62
2022-11-26T22:14:44.963Z,79.95
2022-11-26T22:17:11.422Z,79.74
2022-11-26T22:19:38.373Z,80.08
2022-11-26T22:22:05.055Z,79.22
2022-11-26T22:24:31.608Z,78.59
2022-11-26T22:27:00.884Z,78.46
2022-11-26T22:29:27.387Z,79.15
2022-11-26T22:31:53.929Z,79.33
2022-11-26T22:34:23.674Z,79.10
2022-11-26T22:36:50.480Z,79.33
2022-11-26T22:39:18.202Z,79.58
2022-11-26T22:42:05.040Z,79.29
2022-11-26T22:44:31.519Z,79.08
2022-11-26T22:46:58.056Z,78.54
2022-11-26T22:49:24.595Z,79.04
2022-11-26T22:51:51.060Z,78.87
2022-11-26T22:54:17.544Z,78.98
2022-11-26T22:56:44.386Z,79.19
2022-11-26T22:59:13.138Z,79.02
2022-11-26T23:01:39.668Z,79.17
2022-11-26T23:04:07.812Z,78.69
2022-11-26T23:06:35.704Z,78.92
2022-11-26T23:09:04.759Z,78.38
2022-11-26T23:11:33.861Z,78.96
2022-11-26T23:14:00.457Z,79.35
2022-11-26T23:16:27.456Z,79.24
2022-11-26T23:18:55.739Z,79.85
2022-11-26T23:21:32.160Z,79.17
2022-11-26T23:23:58.791Z,79.04
2022-11-26T23:26:31.086Z,79.62
2022-11-26T23:28:58.802Z,79.46
2022-11-26T23:31:30.717Z,80.10
2022-11-26T23:33:57.935Z,80.33
2022-11-26T23:36:25.588Z,80.66
2022-11-26T23:38:52.448Z,81.73
2022-11-26T23:41:19.086Z,82.86
2022-11-26T23:43:45.760Z,81.92
2022-11-26T23:46:25.429Z,81.81
2022-11-26T23:48:52.499Z,80.84
2022-11-26T23:51:21.437Z,80.70
2022-11-26T23:53:48.878Z,81.73
2022-11-26T23:56:21.288Z,81.15
2022-11-26T23:58:49.156Z,81.87
